sensor_id;sensor_type;location;lat;lon;timestamp;pressure;altitude;pressure_sealevel;temperature;humidity
69570;BME280;56781;42.292;23.146;2023-02-26T00:01:36;94414.94;;;12.46;56.16
69570;BME280;56781;42.292;23.146;2023-02-26T00:04:04;94411.38;;;12.42;56.19
69570;BME280;56781;42.292;23.146;2023-02-26T00:06:34;94411.69;;;12.53;56.69
69570;BME280;56781;42.292;23.146;2023-02-26T00:09:03;94427.50;;;12.70;55.53
69570;BME280;56781;42.292;23.146;2023-02-26T00:11:32;94406.75;;;12.55;55.81
69570;BME280;56781;42.292;23.146;2023-02-26T00:13:59;94417.13;;;12.69;54.55
69570;BME280;56781;42.292;23.146;2023-02-26T00:16:34;94425.88;;;12.66;56.39
69570;BME280;56781;42.292;23.146;2023-02-26T00:19:04;94398.34;;;12.56;54.38
69570;BME280;56781;42.292;23.146;2023-02-26T00:21:34;94387.53;;;12.81;53.46
69570;BME280;56781;42.292;23.146;2023-02-26T00:24:02;94406.06;;;12.98;51.53
69570;BME280;56781;42.292;23.146;2023-02-26T00:26:30;94396.78;;;12.96;51.29
69570;BME280;56781;42.292;23.146;2023-02-26T00:28:58;94379.00;;;12.91;51.76
69570;BME280;56781;42.292;23.146;2023-02-26T00:31:26;94380.84;;;12.75;52.69
69570;BME280;56781;42.292;23.146;2023-02-26T00:33:54;94395.72;;;12.84;51.11
69570;BME280;56781;42.292;23.146;2023-02-26T00:39:58;94395.41;;;13.02;51.67
69570;BME280;56781;42.292;23.146;2023-02-26T00:42:31;94375.00;;;12.85;52.38
69570;BME280;56781;42.292;23.146;2023-02-26T00:44:59;94375.47;;;12.75;53.02
69570;BME280;56781;42.292;23.146;2023-02-26T00:50:12;94371.28;;;12.90;51.93
69570;BME280;56781;42.292;23.146;2023-02-26T00:55:08;94369.25;;;12.71;51.76
69570;BME280;56781;42.292;23.146;2023-02-26T00:57:36;94352.63;;;12.81;51.45
69570;BME280;56781;42.292;23.146;2023-02-26T01:00:04;94361.03;;;12.79;50.58
69570;BME280;56781;42.292;23.146;2023-02-26T01:02:34;94379.47;;;12.81;52.83
69570;BME280;56781;42.292;23.146;2023-02-26T01:05:02;94360.34;;;12.54;53.58
69570;BME280;56781;42.292;23.146;2023-02-26T01:07:37;94337.00;;;12.42;53.23
69570;BME280;56781;42.292;23.146;2023-02-26T01:10:06;94355.59;;;12.63;51.17
69570;BME280;56781;42.292;23.146;2023-02-26T01:12:34;94357.69;;;12.70;52.58
69570;BME280;56781;42.292;23.146;2023-02-26T01:15:01;94333.66;;;12.33;54.80
69570;BME280;56781;42.292;23.146;2023-02-26T01:20:16;94357.81;;;12.74;51.51
69570;BME280;56781;42.292;23.146;2023-02-26T01:23:02;94330.66;;;12.63;51.58
69570;BME280;56781;42.292;23.146;2023-02-26T01:25:49;94341.47;;;12.79;50.89
69570;BME280;56781;42.292;23.146;2023-02-26T01:28:17;94297.94;;;12.45;52.14
69570;BME280;56781;42.292;23.146;2023-02-26T01:30:44;94321.19;;;12.53;52.45
69570;BME280;56781;42.292;23.146;2023-02-26T01:33:33;94330.22;;;12.61;51.52
69570;BME280;56781;42.292;23.146;2023-02-26T01:36:07;94284.38;;;12.54;50.96
69570;BME280;56781;42.292;23.146;2023-02-26T01:39:09;94322.41;;;12.84;49.31
69570;BME280;56781;42.292;23.146;2023-02-26T01:42:26;94296.22;;;12.65;49.72
69570;BME280;56781;42.292;23.146;2023-02-26T01:45:04;94301.59;;;12.65;49.78
69570;BME280;56781;42.292;23.146;2023-02-26T01:47:45;94283.44;;;12.46;51.55
69570;BME280;56781;42.292;23.146;2023-02-26T01:50:17;94297.66;;;12.34;51.82
69570;BME280;56781;42.292;23.146;2023-02-26T01:55:21;94307.06;;;12.28;53.46
69570;BME280;56781;42.292;23.146;2023-02-26T01:57:51;94289.97;;;12.20;53.15
69570;BME280;56781;42.292;23.146;2023-02-26T02:00:20;94284.13;;;12.59;48.38
69570;BME280;56781;42.292;23.146;2023-02-26T02:02:48;94306.50;;;13.23;43.36
69570;BME280;56781;42.292;23.146;2023-02-26T02:05:46;94306.63;;;12.82;50.41
69570;BME280;56781;42.292;23.146;2023-02-26T02:08:16;94316.09;;;12.64;51.81
69570;BME280;56781;42.292;23.146;2023-02-26T02:10:46;94292.81;;;12.40;50.98
69570;BME280;56781;42.292;23.146;2023-02-26T02:13:25;94310.25;;;12.74;48.68
69570;BME280;56781;42.292;23.146;2023-02-26T02:16:26;94303.13;;;12.66;48.76
69570;BME280;56781;42.292;23.146;2023-02-26T02:24:56;94272.66;;;12.74;47.36
69570;BME280;56781;42.292;23.146;2023-02-26T02:27:46;94287.09;;;12.70;48.03
69570;BME280;56781;42.292;23.146;2023-02-26T02:33:00;94280.81;;;12.50;48.84
69570;BME280;56781;42.292;23.146;2023-02-26T02:35:33;94285.75;;;12.48;49.03
69570;BME280;56781;42.292;23.146;2023-02-26T02:38:35;94292.19;;;12.59;49.45
69570;BME280;56781;42.292;23.146;2023-02-26T02:41:14;94299.22;;;12.63;48.85
69570;BME280;56781;42.292;23.146;2023-02-26T02:43:44;94277.94;;;12.42;50.10
69570;BME280;56781;42.292;23.146;2023-02-26T02:46:17;94283.13;;;12.35;50.51
69570;BME280;56781;42.292;23.146;2023-02-26T02:49:14;94288.38;;;12.32;50.49
69570;BME280;56781;42.292;23.146;2023-02-26T02:51:54;94315.72;;;12.50;49.78
69570;BME280;56781;42.292;23.146;2023-02-26T02:54:39;94281.66;;;12.38;49.88
69570;BME280;56781;42.292;23.146;2023-02-26T02:57:14;94300.00;;;12.36;51.09
69570;BME280;56781;42.292;23.146;2023-02-26T02:59:45;94291.03;;;12.16;52.72
69570;BME280;56781;42.292;23.146;2023-02-26T03:04:48;94271.50;;;12.31;51.06
69570;BME280;56781;42.292;23.146;2023-02-26T03:07:15;94270.78;;;12.47;50.17
69570;BME280;56781;42.292;23.146;2023-02-26T03:09:43;94268.59;;;12.36;50.41
69570;BME280;56781;42.292;23.146;2023-02-26T03:12:10;94264.13;;;12.28;51.89
69570;BME280;56781;42.292;23.146;2023-02-26T03:14:38;94303.44;;;12.49;51.24
69570;BME280;56781;42.292;23.146;2023-02-26T03:17:18;94290.25;;;12.44;51.07
69570;BME280;56781;42.292;23.146;2023-02-26T03:20:02;94249.31;;;12.47;49.88
69570;BME280;56781;42.292;23.146;2023-02-26T03:22:54;94279.41;;;12.68;49.17
69570;BME280;56781;42.292;23.146;2023-02-26T03:25:26;94263.41;;;12.44;50.11
69570;BME280;56781;42.292;23.146;2023-02-26T03:28:18;94249.59;;;12.29;50.83
69570;BME280;56781;42.292;23.146;2023-02-26T03:31:25;94245.25;;;12.53;49.99
69570;BME280;56781;42.292;23.146;2023-02-26T03:34:17;94217.75;;;12.72;46.98
69570;BME280;56781;42.292;23.146;2023-02-26T03:37:18;94262.59;;;12.71;48.16
69570;BME280;56781;42.292;23.146;2023-02-26T03:39:52;94251.38;;;12.53;49.58
69570;BME280;56781;42.292;23.146;2023-02-26T03:45:13;94265.28;;;12.43;49.61
69570;BME280;56781;42.292;23.146;2023-02-26T03:47:46;94262.81;;;12.78;46.60
69570;BME280;56781;42.292;23.146;2023-02-26T03:50:24;94259.84;;;12.83;45.22
69570;BME280;56781;42.292;23.146;2023-02-26T03:52:54;94245.91;;;13.25;41.19
69570;BME280;56781;42.292;23.146;2023-02-26T03:55:47;94285.03;;;13.39;42.27
69570;BME280;56781;42.292;23.146;2023-02-26T03:58:16;94285.69;;;13.04;45.10
69570;BME280;56781;42.292;23.146;2023-02-26T04:00:46;94247.34;;;12.75;45.72
69570;BME280;56781;42.292;23.146;2023-02-26T04:03:27;94264.81;;;12.81;45.53
69570;BME280;56781;42.292;23.146;2023-02-26T04:05:55;94251.44;;;12.69;47.62
69570;BME280;56781;42.292;23.146;2023-02-26T04:08:23;94261.63;;;12.63;46.89
69570;BME280;56781;42.292;23.146;2023-02-26T04:13:23;94248.66;;;12.66;45.76
69570;BME280;56781;42.292;23.146;2023-02-26T04:15:51;94254.81;;;12.66;45.43
69570;BME280;56781;42.292;23.146;2023-02-26T04:18:18;94234.72;;;12.92;43.18
69570;BME280;56781;42.292;23.146;2023-02-26T04:20:45;94282.63;;;13.34;40.12
69570;BME280;56781;42.292;23.146;2023-02-26T04:23:12;94248.88;;;13.36;40.41
69570;BME280;56781;42.292;23.146;2023-02-26T04:25:39;94259.88;;;13.15;44.94
69570;BME280;56781;42.292;23.146;2023-02-26T04:28:06;94227.47;;;12.48;47.80
69570;BME280;56781;42.292;23.146;2023-02-26T04:30:33;94212.41;;;12.44;47.22
69570;BME280;56781;42.292;23.146;2023-02-26T04:33:01;94217.41;;;12.73;43.20
69570;BME280;56781;42.292;23.146;2023-02-26T04:35:28;94240.72;;;13.01;41.18
69570;BME280;56781;42.292;23.146;2023-02-26T04:37:55;94234.47;;;13.44;39.18
69570;BME280;56781;42.292;23.146;2023-02-26T04:40:22;94204.72;;;13.53;38.76
69570;BME280;56781;42.292;23.146;2023-02-26T04:42:50;94243.69;;;13.79;38.25
69570;BME280;56781;42.292;23.146;2023-02-26T04:45:17;94253.00;;;13.65;38.61
69570;BME280;56781;42.292;23.146;2023-02-26T04:47:44;94228.00;;;13.65;38.06
69570;BME280;56781;42.292;23.146;2023-02-26T04:50:11;94217.25;;;13.65;38.20
69570;BME280;56781;42.292;23.146;2023-02-26T04:52:38;94229.50;;;13.62;38.47
69570;BME280;56781;42.292;23.146;2023-02-26T04:55:06;94188.50;;;13.85;37.63
69570;BME280;56781;42.292;23.146;2023-02-26T04:57:33;94210.22;;;13.95;37.32
69570;BME280;56781;42.292;23.146;2023-02-26T05:00:00;94172.06;;;13.90;37.43
69570;BME280;56781;42.292;23.146;2023-02-26T05:02:27;94211.44;;;13.98;37.19
69570;BME280;56781;42.292;23.146;2023-02-26T05:04:54;94220.50;;;14.09;37.40
69570;BME280;56781;42.292;23.146;2023-02-26T05:07:22;94192.44;;;13.91;37.07
69570;BME280;56781;42.292;23.146;2023-02-26T05:09:49;94211.06;;;14.19;36.78
69570;BME280;56781;42.292;23.146;2023-02-26T05:12:16;94195.16;;;14.10;36.67
69570;BME280;56781;42.292;23.146;2023-02-26T05:14:43;94225.03;;;14.44;36.47
69570;BME280;56781;42.292;23.146;2023-02-26T05:17:10;94192.88;;;14.12;36.87
69570;BME280;56781;42.292;23.146;2023-02-26T05:19:37;94187.50;;;14.12;36.58
69570;BME280;56781;42.292;23.146;2023-02-26T05:22:04;94177.72;;;14.24;36.12
69570;BME280;56781;42.292;23.146;2023-02-26T05:24:32;94183.97;;;14.28;36.02
69570;BME280;56781;42.292;23.146;2023-02-26T05:26:59;94179.53;;;14.58;36.14
69570;BME280;56781;42.292;23.146;2023-02-26T05:29:26;94157.63;;;14.40;35.59
69570;BME280;56781;42.292;23.146;2023-02-26T05:31:53;94198.88;;;14.45;36.10
69570;BME280;56781;42.292;23.146;2023-02-26T05:34:20;94191.16;;;14.43;35.86
69570;BME280;56781;42.292;23.146;2023-02-26T05:36:47;94180.09;;;14.48;36.02
69570;BME280;56781;42.292;23.146;2023-02-26T05:39:14;94184.06;;;14.54;35.73
69570;BME280;56781;42.292;23.146;2023-02-26T05:41:42;94154.88;;;14.37;36.06
69570;BME280;56781;42.292;23.146;2023-02-26T05:44:09;94117.91;;;14.34;36.06
69570;BME280;56781;42.292;23.146;2023-02-26T05:46:36;94158.94;;;14.70;35.64
69570;BME280;56781;42.292;23.146;2023-02-26T05:49:03;94177.97;;;14.57;35.55
69570;BME280;56781;42.292;23.146;2023-02-26T05:51:30;94177.66;;;14.62;35.60
69570;BME280;56781;42.292;23.146;2023-02-26T05:53:58;94186.03;;;14.57;36.11
69570;BME280;56781;42.292;23.146;2023-02-26T05:56:25;94190.84;;;14.48;36.16
69570;BME280;56781;42.292;23.146;2023-02-26T05:58:52;94187.81;;;14.69;35.13
69570;BME280;56781;42.292;23.146;2023-02-26T06:01:19;94187.44;;;14.71;35.22
69570;BME280;56781;42.292;23.146;2023-02-26T06:03:46;94210.94;;;14.93;34.72
69570;BME280;56781;42.292;23.146;2023-02-26T06:06:14;94184.53;;;14.79;34.98
69570;BME280;56781;42.292;23.146;2023-02-26T06:08:44;94175.59;;;14.98;34.24
69570;BME280;56781;42.292;23.146;2023-02-26T06:11:12;94148.81;;;15.09;33.41
69570;BME280;56781;42.292;23.146;2023-02-26T06:13:39;94148.44;;;15.11;33.69
69570;BME280;56781;42.292;23.146;2023-02-26T06:16:07;94154.66;;;15.15;33.90
69570;BME280;56781;42.292;23.146;2023-02-26T06:18:34;94162.13;;;15.25;33.44
69570;BME280;56781;42.292;23.146;2023-02-26T06:21:01;94150.38;;;15.37;33.10
69570;BME280;56781;42.292;23.146;2023-02-26T06:23:28;94188.50;;;15.65;32.88
69570;BME280;56781;42.292;23.146;2023-02-26T06:25:55;94163.28;;;15.77;32.57
69570;BME280;56781;42.292;23.146;2023-02-26T06:28:25;94171.09;;;15.86;32.21
69570;BME280;56781;42.292;23.146;2023-02-26T06:30:52;94166.63;;;16.01;32.15
69570;BME280;56781;42.292;23.146;2023-02-26T06:33:20;94154.31;;;16.03;31.49
69570;BME280;56781;42.292;23.146;2023-02-26T06:35:50;94158.22;;;16.06;31.40
69570;BME280;56781;42.292;23.146;2023-02-26T06:38:18;94151.13;;;15.94;31.74
69570;BME280;56781;42.292;23.146;2023-02-26T06:40:46;94153.78;;;16.24;31.63
69570;BME280;56781;42.292;23.146;2023-02-26T06:43:14;94137.88;;;16.53;31.13
69570;BME280;56781;42.292;23.146;2023-02-26T06:45:41;94145.59;;;16.51;30.72
69570;BME280;56781;42.292;23.146;2023-02-26T06:48:08;94133.41;;;16.71;30.45
69570;BME280;56781;42.292;23.146;2023-02-26T06:50:35;94122.38;;;16.87;30.56
69570;BME280;56781;42.292;23.146;2023-02-26T06:53:02;94135.63;;;17.03;30.33
69570;BME280;56781;42.292;23.146;2023-02-26T06:55:30;94131.81;;;17.08;29.83
69570;BME280;56781;42.292;23.146;2023-02-26T06:57:57;94152.44;;;17.26;29.80
69570;BME280;56781;42.292;23.146;2023-02-26T07:00:25;94166.47;;;17.46;29.53
69570;BME280;56781;42.292;23.146;2023-02-26T07:02:52;94139.69;;;17.31;29.27
69570;BME280;56781;42.292;23.146;2023-02-26T07:05:19;94161.78;;;17.40;29.40
69570;BME280;56781;42.292;23.146;2023-02-26T07:07:47;94139.38;;;17.43;29.37
69570;BME280;56781;42.292;23.146;2023-02-26T07:10:14;94135.47;;;17.37;29.63
69570;BME280;56781;42.292;23.146;2023-02-26T07:12:41;94155.16;;;17.34;29.51
69570;BME280;56781;42.292;23.146;2023-02-26T07:15:08;94147.09;;;17.41;29.27
69570;BME280;56781;42.292;23.146;2023-02-26T07:17:35;94138.84;;;17.82;28.16
69570;BME280;56781;42.292;23.146;2023-02-26T07:20:03;94125.53;;;17.55;29.03
69570;BME280;56781;42.292;23.146;2023-02-26T07:22:36;94109.41;;;17.77;28.15
69570;BME280;56781;42.292;23.146;2023-02-26T07:25:04;94118.34;;;17.81;28.15
69570;BME280;56781;42.292;23.146;2023-02-26T07:27:32;94106.00;;;17.94;27.77
69570;BME280;56781;42.292;23.146;2023-02-26T07:29:59;94099.81;;;17.93;27.99
69570;BME280;56781;42.292;23.146;2023-02-26T07:32:27;94136.28;;;18.10;28.14
69570;BME280;56781;42.292;23.146;2023-02-26T07:34:54;94111.19;;;18.42;27.38
69570;BME280;56781;42.292;23.146;2023-02-26T07:37:21;94108.50;;;18.71;26.89
69570;BME280;56781;42.292;23.146;2023-02-26T07:39:48;94082.53;;;18.30;27.33
69570;BME280;56781;42.292;23.146;2023-02-26T07:42:15;94063.94;;;18.29;27.25
69570;BME280;56781;42.292;23.146;2023-02-26T07:44:43;94121.28;;;18.63;27.23
69570;BME280;56781;42.292;23.146;2023-02-26T07:47:10;94074.84;;;18.75;26.62
69570;BME280;56781;42.292;23.146;2023-02-26T07:49:38;94138.25;;;18.28;27.20
69570;BME280;56781;42.292;23.146;2023-02-26T07:52:06;94060.09;;;18.58;26.83
69570;BME280;56781;42.292;23.146;2023-02-26T07:54:34;94091.84;;;18.61;27.01
69570;BME280;56781;42.292;23.146;2023-02-26T07:57:02;94101.19;;;18.89;26.75
69570;BME280;56781;42.292;23.146;2023-02-26T07:59:29;94081.03;;;18.94;27.00
69570;BME280;56781;42.292;23.146;2023-02-26T08:01:57;94083.72;;;19.15;26.48
69570;BME280;56781;42.292;23.146;2023-02-26T08:04:24;94119.78;;;18.80;26.72
69570;BME280;56781;42.292;23.146;2023-02-26T08:06:51;94103.47;;;18.58;27.00
69570;BME280;56781;42.292;23.146;2023-02-26T08:09:20;94084.84;;;18.35;27.03
69570;BME280;56781;42.292;23.146;2023-02-26T08:11:48;94082.53;;;18.48;27.07
69570;BME280;56781;42.292;23.146;2023-02-26T08:14:15;94084.09;;;18.46;27.08
69570;BME280;56781;42.292;23.146;2023-02-26T08:16:42;94075.56;;;18.47;26.64
69570;BME280;56781;42.292;23.146;2023-02-26T08:19:09;94077.13;;;18.55;26.82
69570;BME280;56781;42.292;23.146;2023-02-26T08:21:36;94118.63;;;18.85;26.34
69570;BME280;56781;42.292;23.146;2023-02-26T08:24:03;94110.88;;;18.79;26.79
69570;BME280;56781;42.292;23.146;2023-02-26T08:26:30;94097.56;;;18.10;27.69
69570;BME280;56781;42.292;23.146;2023-02-26T08:29:00;94085.53;;;18.00;28.09
69570;BME280;56781;42.292;23.146;2023-02-26T08:31:27;94122.03;;;18.38;27.35
69570;BME280;56781;42.292;23.146;2023-02-26T08:33:55;94114.31;;;18.58;26.93
69570;BME280;56781;42.292;23.146;2023-02-26T08:36:23;94094.22;;;18.77;26.83
69570;BME280;56781;42.292;23.146;2023-02-26T08:38:52;94050.44;;;18.82;25.74
69570;BME280;56781;42.292;23.146;2023-02-26T08:41:19;94095.38;;;18.87;26.50
69570;BME280;56781;42.292;23.146;2023-02-26T08:43:47;94095.00;;;19.03;26.81
69570;BME280;56781;42.292;23.146;2023-02-26T08:46:14;94120.16;;;19.36;26.06
69570;BME280;56781;42.292;23.146;2023-02-26T08:48:42;94110.34;;;19.81;25.86
69570;BME280;56781;42.292;23.146;2023-02-26T08:51:09;94119.38;;;19.28;25.80
69570;BME280;56781;42.292;23.146;2023-02-26T08:53:36;94134.50;;;18.86;26.65
69570;BME280;56781;42.292;23.146;2023-02-26T08:56:04;94129.88;;;18.97;26.55
69570;BME280;56781;42.292;23.146;2023-02-26T08:58:31;94109.72;;;18.98;26.44
69570;BME280;56781;42.292;23.146;2023-02-26T09:00:58;94091.13;;;19.00;26.29
69570;BME280;56781;42.292;23.146;2023-02-26T09:03:26;94069.03;;;18.98;26.01
69570;BME280;56781;42.292;23.146;2023-02-26T09:05:53;94128.69;;;19.13;25.94
69570;BME280;56781;42.292;23.146;2023-02-26T09:08:20;94133.66;;;19.54;26.04
69570;BME280;56781;42.292;23.146;2023-02-26T09:10:48;94132.19;;;19.27;26.33
69570;BME280;56781;42.292;23.146;2023-02-26T09:13:15;94119.75;;;19.16;26.36
69570;BME280;56781;42.292;23.146;2023-02-26T09:15:42;94146.06;;;19.51;26.68
69570;BME280;56781;42.292;23.146;2023-02-26T09:18:10;94136.38;;;19.61;26.90
69570;BME280;56781;42.292;23.146;2023-02-26T09:20:43;94141.03;;;19.60;26.05
69570;BME280;56781;42.292;23.146;2023-02-26T09:23:10;94101.09;;;19.54;26.06
69570;BME280;56781;42.292;23.146;2023-02-26T09:25:38;94102.63;;;19.76;25.54
69570;BME280;56781;42.292;23.146;2023-02-26T09:28:06;94101.84;;;19.61;26.14
69570;BME280;56781;42.292;23.146;2023-02-26T09:30:33;94102.63;;;19.62;26.10
69570;BME280;56781;42.292;23.146;2023-02-26T09:33:00;94066.06;;;19.99;23.38
69570;BME280;56781;42.292;23.146;2023-02-26T09:35:28;94101.25;;;20.24;23.82
69570;BME280;56781;42.292;23.146;2023-02-26T09:37:55;94078.59;;;19.71;26.15
69570;BME280;56781;42.292;23.146;2023-02-26T09:40:42;94094.13;;;19.53;26.34
69570;BME280;56781;42.292;23.146;2023-02-26T09:46:03;94110.03;;;19.40;26.77
69570;BME280;56781;42.292;23.146;2023-02-26T09:48:34;94133.28;;;19.55;27.63
69570;BME280;56781;42.292;23.146;2023-02-26T09:51:04;94134.47;;;19.29;27.39
69570;BME280;56781;42.292;23.146;2023-02-26T09:53:37;94146.88;;;19.52;27.53
69570;BME280;56781;42.292;23.146;2023-02-26T09:56:15;94157.34;;;18.85;27.98
69570;BME280;56781;42.292;23.146;2023-02-26T09:58:44;94149.97;;;18.75;28.47
69570;BME280;56781;42.292;23.146;2023-02-26T10:01:19;94177.13;;;19.00;29.80
69570;BME280;56781;42.292;23.146;2023-02-26T10:04:10;94163.13;;;18.66;29.75
69570;BME280;56781;42.292;23.146;2023-02-26T10:09:56;94174.63;;;18.34;30.04
69570;BME280;56781;42.292;23.146;2023-02-26T10:12:29;94186.25;;;18.27;31.39
69570;BME280;56781;42.292;23.146;2023-02-26T10:15:28;94191.00;;;18.63;31.57
69570;BME280;56781;42.292;23.146;2023-02-26T10:23:41;94199.38;;;18.22;31.71
69570;BME280;56781;42.292;23.146;2023-02-26T10:32:00;94202.41;;;18.06;29.61
69570;BME280;56781;42.292;23.146;2023-02-26T10:34:43;94191.56;;;18.02;31.62
69570;BME280;56781;42.292;23.146;2023-02-26T10:37:18;94157.09;;;17.99;29.14
69570;BME280;56781;42.292;23.146;2023-02-26T10:39:53;94167.50;;;17.93;31.25
69570;BME280;56781;42.292;23.146;2023-02-26T10:42:29;94165.81;;;17.67;31.98
69570;BME280;56781;42.292;23.146;2023-02-26T10:45:08;94125.53;;;17.55;31.49
69570;BME280;56781;42.292;23.146;2023-02-26T10:51:17;94172.38;;;17.08;35.39
69570;BME280;56781;42.292;23.146;2023-02-26T10:53:50;94143.66;;;16.92;36.67
69570;BME280;56781;42.292;23.146;2023-02-26T10:56:25;94162.34;;;17.12;35.82
69570;BME280;56781;42.292;23.146;2023-02-26T10:58:53;94145.94;;;16.87;37.40
69570;BME280;56781;42.292;23.146;2023-02-26T11:01:22;94156.94;;;16.67;38.55
69570;BME280;56781;42.292;23.146;2023-02-26T11:03:59;94135.16;;;16.53;40.10
69570;BME280;56781;42.292;23.146;2023-02-26T11:06:34;94147.03;;;16.45;41.35
69570;BME280;56781;42.292;23.146;2023-02-26T11:09:06;94159.78;;;16.44;41.48
69570;BME280;56781;42.292;23.146;2023-02-26T11:12:01;94160.19;;;16.46;41.65
69570;BME280;56781;42.292;23.146;2023-02-26T11:14:31;94115.69;;;16.33;41.54
69570;BME280;56781;42.292;23.146;2023-02-26T11:17:20;94175.69;;;16.53;42.39
69570;BME280;56781;42.292;23.146;2023-02-26T11:20:03;94124.38;;;16.15;43.65
69570;BME280;56781;42.292;23.146;2023-02-26T11:22:34;94146.75;;;16.16;44.05
69570;BME280;56781;42.292;23.146;2023-02-26T11:25:05;94152.13;;;15.82;45.51
69570;BME280;56781;42.292;23.146;2023-02-26T11:27:36;94163.03;;;15.89;45.01
69570;BME280;56781;42.292;23.146;2023-02-26T11:30:28;94182.69;;;15.90;45.45
69570;BME280;56781;42.292;23.146;2023-02-26T11:32:56;94172.69;;;15.64;45.58
69570;BME280;56781;42.292;23.146;2023-02-26T11:35:24;94154.66;;;15.41;46.19
69570;BME280;56781;42.292;23.146;2023-02-26T11:37:56;94161.81;;;15.57;47.25
69570;BME280;56781;42.292;23.146;2023-02-26T11:40:38;94151.84;;;15.61;48.02
69570;BME280;56781;42.292;23.146;2023-02-26T11:43:19;94178.81;;;15.87;46.93
69570;BME280;56781;42.292;23.146;2023-02-26T11:45:57;94126.31;;;15.81;46.45
69570;BME280;56781;42.292;23.146;2023-02-26T11:48:46;94128.19;;;16.11;46.41
69570;BME280;56781;42.292;23.146;2023-02-26T11:51:18;94175.75;;;15.89;47.56
69570;BME280;56781;42.292;23.146;2023-02-26T11:53:53;94159.94;;;15.61;48.85
69570;BME280;56781;42.292;23.146;2023-02-26T11:56:40;94170.59;;;15.50;49.51
69570;BME280;56781;42.292;23.146;2023-02-26T11:59:22;94149.94;;;15.35;50.42
69570;BME280;56781;42.292;23.146;2023-02-26T12:01:51;94152.75;;;15.42;50.45
69570;BME280;56781;42.292;23.146;2023-02-26T12:04:21;94153.28;;;15.55;50.17
69570;BME280;56781;42.292;23.146;2023-02-26T12:06:53;94140.38;;;15.67;50.20
69570;BME280;56781;42.292;23.146;2023-02-26T12:09:21;94158.38;;;16.20;49.34
69570;BME280;56781;42.292;23.146;2023-02-26T12:11:56;94186.97;;;15.91;49.77
69570;BME280;56781;42.292;23.146;2023-02-26T12:14:41;94192.66;;;16.16;49.79
69570;BME280;56781;42.292;23.146;2023-02-26T12:23:03;94174.59;;;15.90;50.27
69570;BME280;56781;42.292;23.146;2023-02-26T12:25:51;94157.97;;;16.18;48.78
69570;BME280;56781;42.292;23.146;2023-02-26T12:45:46;94164.88;;;16.53;44.67
69570;BME280;56781;42.292;23.146;2023-02-26T12:48:49;94174.00;;;16.37;44.42
69570;BME280;56781;42.292;23.146;2023-02-26T12:51:41;94139.97;;;16.29;42.97
69570;BME280;56781;42.292;23.146;2023-02-26T12:56:43;94163.34;;;16.52;42.99
69570;BME280;56781;42.292;23.146;2023-02-26T13:05:04;94180.94;;;16.38;44.70
69570;BME280;56781;42.292;23.146;2023-02-26T13:08:00;94191.09;;;16.49;44.33
69570;BME280;56781;42.292;23.146;2023-02-26T13:11:03;94155.88;;;16.38;44.81
69570;BME280;56781;42.292;23.146;2023-02-26T13:13:37;94170.63;;;16.48;44.60
69570;BME280;56781;42.292;23.146;2023-02-26T13:21:28;94135.28;;;15.89;45.29
69570;BME280;56781;42.292;23.146;2023-02-26T13:24:01;94166.75;;;15.78;45.24
69570;BME280;56781;42.292;23.146;2023-02-26T13:26:32;94134.56;;;15.39;45.55
69570;BME280;56781;42.292;23.146;2023-02-26T13:29:26;94172.19;;;15.55;45.82
69570;BME280;56781;42.292;23.146;2023-02-26T13:32:07;94176.47;;;15.59;45.47
69570;BME280;56781;42.292;23.146;2023-02-26T13:37:32;94156.09;;;15.62;45.25
69570;BME280;56781;42.292;23.146;2023-02-26T13:40:27;94188.25;;;15.74;45.69
69570;BME280;56781;42.292;23.146;2023-02-26T13:46:10;94211.72;;;15.70;46.37
69570;BME280;56781;42.292;23.146;2023-02-26T13:51:40;94195.94;;;15.45;46.58
69570;BME280;56781;42.292;23.146;2023-02-26T13:56:54;94248.47;;;15.55;46.81
69570;BME280;56781;42.292;23.146;2023-02-26T13:59:49;94209.63;;;15.33;46.87
69570;BME280;56781;42.292;23.146;2023-02-26T14:04:52;94245.25;;;15.46;47.76
69570;BME280;56781;42.292;23.146;2023-02-26T14:07:47;94239.91;;;15.23;48.33
69570;BME280;56781;42.292;23.146;2023-02-26T14:10:23;94223.91;;;15.11;48.63
69570;BME280;56781;42.292;23.146;2023-02-26T14:13:12;94243.41;;;14.81;49.64
69570;BME280;56781;42.292;23.146;2023-02-26T14:16:10;94275.03;;;14.84;49.88
69570;BME280;56781;42.292;23.146;2023-02-26T14:18:48;94255.88;;;14.66;50.38
69570;BME280;56781;42.292;23.146;2023-02-26T14:24:00;94278.41;;;14.58;51.09
69570;BME280;56781;42.292;23.146;2023-02-26T14:26:32;94275.47;;;14.28;52.15
69570;BME280;56781;42.292;23.146;2023-02-26T14:29:12;94274.19;;;14.41;51.82
69570;BME280;56781;42.292;23.146;2023-02-26T14:34:33;94297.44;;;14.49;51.36
69570;BME280;56781;42.292;23.146;2023-02-26T14:37:07;94288.94;;;14.47;52.08
69570;BME280;56781;42.292;23.146;2023-02-26T14:39:40;94266.25;;;14.09;52.22
69570;BME280;56781;42.292;23.146;2023-02-26T14:42:19;94262.22;;;14.19;51.99
69570;BME280;56781;42.292;23.146;2023-02-26T14:44:50;94290.75;;;14.24;52.33
69570;BME280;56781;42.292;23.146;2023-02-26T14:47:19;94286.19;;;14.08;52.43
69570;BME280;56781;42.292;23.146;2023-02-26T14:49:47;94268.56;;;13.91;52.96
69570;BME280;56781;42.292;23.146;2023-02-26T14:52:23;94267.06;;;13.94;52.56
69570;BME280;56781;42.292;23.146;2023-02-26T14:58:04;94296.28;;;14.11;51.71
69570;BME280;56781;42.292;23.146;2023-02-26T15:00:52;94270.53;;;13.94;51.31
69570;BME280;56781;42.292;23.146;2023-02-26T15:12:04;94274.56;;;13.85;53.96
69570;BME280;56781;42.292;23.146;2023-02-26T15:17:43;94263.09;;;13.88;53.24
69570;BME280;56781;42.292;23.146;2023-02-26T15:23:35;94253.75;;;13.82;52.39
69570;BME280;56781;42.292;23.146;2023-02-26T15:26:06;94251.41;;;13.80;51.71